sensor_id;sensor_type;location;lat;lon;timestamp;temperature;humidity
9564;DHT22;4820;50.870;4.702;2023-07-20T00:00:06;17.10;99.90
9564;DHT22;4820;50.870;4.702;2023-07-20T00:02:32;17.10;99.90
9564;DHT22;4820;50.870;4.702;2023-07-20T00:04:57;17.20;99.90
9564;DHT22;4820;50.870;4.702;2023-07-20T00:07:23;17.10;99.90
9564;DHT22;4820;50.870;4.702;2023-07-20T00:09:50;17.10;99.90
9564;DHT22;4820;50.870;4.702;2023-07-20T00:12:15;17.10;99.90
9564;DHT22;4820;50.870;4.702;2023-07-20T00:14:41;17.10;99.90
9564;DHT22;4820;50.870;4.702;2023-07-20T00:17:07;17.10;99.90
9564;DHT22;4820;50.870;4.702;2023-07-20T00:19:32;17.10;99.90
9564;DHT22;4820;50.870;4.702;2023-07-20T00:21:58;17.00;99.90
9564;DHT22;4820;50.870;4.702;2023-07-20T00:24:24;17.00;99.90
9564;DHT22;4820;50.870;4.702;2023-07-20T00:26:50;17.00;99.90
9564;DHT22;4820;50.870;4.702;2023-07-20T00:29:16;17.00;99.90
9564;DHT22;4820;50.870;4.702;2023-07-20T00:31:41;17.00;99.90
9564;DHT22;4820;50.870;4.702;2023-07-20T00:34:09;17.00;99.90
9564;DHT22;4820;50.870;4.702;2023-07-20T00:36:34;17.00;99.90
9564;DHT22;4820;50.870;4.702;2023-07-20T00:39:00;17.00;99.90
9564;DHT22;4820;50.870;4.702;2023-07-20T00:41:26;17.00;99.90
9564;DHT22;4820;50.870;4.702;2023-07-20T00:43:55;17.00;99.90
9564;DHT22;4820;50.870;4.702;2023-07-20T00:46:23;17.00;99.90
9564;DHT22;4820;50.870;4.702;2023-07-20T00:48:48;17.00;99.90
9564;DHT22;4820;50.870;4.702;2023-07-20T00:51:14;17.00;99.90
9564;DHT22;4820;50.870;4.702;2023-07-20T00:53:40;17.00;99.90
9564;DHT22;4820;50.870;4.702;2023-07-20T00:56:06;17.00;99.90
9564;DHT22;4820;50.870;4.702;2023-07-20T00:58:34;16.90;99.90
9564;DHT22;4820;50.870;4.702;2023-07-20T01:01:00;17.00;99.90
9564;DHT22;4820;50.870;4.702;2023-07-20T01:03:26;16.90;99.90
9564;DHT22;4820;50.870;4.702;2023-07-20T01:06:14;16.90;99.90
9564;DHT22;4820;50.870;4.702;2023-07-20T01:09:09;16.90;99.90
9564;DHT22;4820;50.870;4.702;2023-07-20T01:14:06;16.90;99.90
9564;DHT22;4820;50.870;4.702;2023-07-20T01:16:33;16.90;99.90
9564;DHT22;4820;50.870;4.702;2023-07-20T01:18:59;16.90;99.90
9564;DHT22;4820;50.870;4.702;2023-07-20T01:21:31;16.90;99.90
9564;DHT22;4820;50.870;4.702;2023-07-20T01:24:32;17.00;99.90
9564;DHT22;4820;50.870;4.702;2023-07-20T01:32:42;17.00;99.90
9564;DHT22;4820;50.870;4.702;2023-07-20T01:35:11;17.00;99.90
9564;DHT22;4820;50.870;4.702;2023-07-20T01:37:42;17.00;99.90
9564;DHT22;4820;50.870;4.702;2023-07-20T01:40:09;17.00;99.90
9564;DHT22;4820;50.870;4.702;2023-07-20T01:42:35;17.10;99.90
9564;DHT22;4820;50.870;4.702;2023-07-20T01:45:01;17.10;99.90
9564;DHT22;4820;50.870;4.702;2023-07-20T01:47:27;17.10;99.90
9564;DHT22;4820;50.870;4.702;2023-07-20T01:49:53;17.10;99.90
9564;DHT22;4820;50.870;4.702;2023-07-20T01:52:19;17.10;99.90
9564;DHT22;4820;50.870;4.702;2023-07-20T01:54:45;17.10;99.90
9564;DHT22;4820;50.870;4.702;2023-07-20T01:57:10;17.10;99.90
9564;DHT22;4820;50.870;4.702;2023-07-20T01:59:36;17.10;99.90
9564;DHT22;4820;50.870;4.702;2023-07-20T02:02:02;17.00;99.90
9564;DHT22;4820;50.870;4.702;2023-07-20T02:04:27;17.00;99.90
9564;DHT22;4820;50.870;4.702;2023-07-20T02:06:53;17.00;99.90
9564;DHT22;4820;50.870;4.702;2023-07-20T02:09:19;17.00;99.90
9564;DHT22;4820;50.870;4.702;2023-07-20T02:11:45;17.00;99.90
9564;DHT22;4820;50.870;4.702;2023-07-20T02:14:11;17.00;99.90
9564;DHT22;4820;50.870;4.702;2023-07-20T02:16:36;16.90;99.90
9564;DHT22;4820;50.870;4.702;2023-07-20T02:19:02;16.90;99.90
9564;DHT22;4820;50.870;4.702;2023-07-20T02:21:29;16.90;99.90
9564;DHT22;4820;50.870;4.702;2023-07-20T02:23:54;16.90;99.90
9564;DHT22;4820;50.870;4.702;2023-07-20T02:26:20;16.80;99.90
9564;DHT22;4820;50.870;4.702;2023-07-20T02:28:47;16.80;99.90
9564;DHT22;4820;50.870;4.702;2023-07-20T02:31:12;16.80;99.90
9564;DHT22;4820;50.870;4.702;2023-07-20T02:33:38;16.80;99.90
9564;DHT22;4820;50.870;4.702;2023-07-20T02:36:04;16.90;99.90
9564;DHT22;4820;50.870;4.702;2023-07-20T02:38:29;16.80;99.90
9564;DHT22;4820;50.870;4.702;2023-07-20T02:40:55;16.90;99.90
9564;DHT22;4820;50.870;4.702;2023-07-20T02:43:20;16.80;99.90
9564;DHT22;4820;50.870;4.702;2023-07-20T02:45:46;16.80;99.90
9564;DHT22;4820;50.870;4.702;2023-07-20T02:48:12;16.80;99.90
9564;DHT22;4820;50.870;4.702;2023-07-20T02:50:37;16.70;99.90
9564;DHT22;4820;50.870;4.702;2023-07-20T02:53:03;16.70;99.90
9564;DHT22;4820;50.870;4.702;2023-07-20T02:55:29;16.60;99.90
9564;DHT22;4820;50.870;4.702;2023-07-20T02:57:55;16.60;99.90
9564;DHT22;4820;50.870;4.702;2023-07-20T03:00:21;16.50;99.90
9564;DHT22;4820;50.870;4.702;2023-07-20T03:02:48;16.60;99.90
9564;DHT22;4820;50.870;4.702;2023-07-20T03:05:15;16.50;99.90
9564;DHT22;4820;50.870;4.702;2023-07-20T03:07:42;16.50;99.90
9564;DHT22;4820;50.870;4.702;2023-07-20T03:10:09;16.50;99.90
9564;DHT22;4820;50.870;4.702;2023-07-20T03:12:36;16.40;99.90
9564;DHT22;4820;50.870;4.702;2023-07-20T03:15:02;16.40;99.90
9564;DHT22;4820;50.870;4.702;2023-07-20T03:17:28;16.40;99.90
9564;DHT22;4820;50.870;4.702;2023-07-20T03:19:54;16.50;99.90
9564;DHT22;4820;50.870;4.702;2023-07-20T03:22:19;16.50;99.90
9564;DHT22;4820;50.870;4.702;2023-07-20T03:24:46;16.50;99.90
9564;DHT22;4820;50.870;4.702;2023-07-20T03:27:13;16.50;99.90
9564;DHT22;4820;50.870;4.702;2023-07-20T03:29:41;16.50;99.90
9564;DHT22;4820;50.870;4.702;2023-07-20T03:32:08;16.50;99.90
9564;DHT22;4820;50.870;4.702;2023-07-20T03:34:34;16.60;99.90
9564;DHT22;4820;50.870;4.702;2023-07-20T03:37:00;16.60;99.90
9564;DHT22;4820;50.870;4.702;2023-07-20T03:39:26;16.60;99.90
9564;DHT22;4820;50.870;4.702;2023-07-20T03:41:52;16.60;99.90
9564;DHT22;4820;50.870;4.702;2023-07-20T03:44:18;16.60;99.90
9564;DHT22;4820;50.870;4.702;2023-07-20T03:46:44;16.60;99.90
9564;DHT22;4820;50.870;4.702;2023-07-20T03:49:09;16.60;99.90
9564;DHT22;4820;50.870;4.702;2023-07-20T03:51:35;16.60;99.90
9564;DHT22;4820;50.870;4.702;2023-07-20T03:54:01;16.60;99.90
9564;DHT22;4820;50.870;4.702;2023-07-20T03:56:27;16.60;99.90
9564;DHT22;4820;50.870;4.702;2023-07-20T03:58:53;16.60;99.90
9564;DHT22;4820;50.870;4.702;2023-07-20T04:01:19;16.60;99.90
9564;DHT22;4820;50.870;4.702;2023-07-20T04:03:45;16.60;99.90
9564;DHT22;4820;50.870;4.702;2023-07-20T04:06:10;16.60;99.90
9564;DHT22;4820;50.870;4.702;2023-07-20T04:08:37;16.60;99.90
9564;DHT22;4820;50.870;4.702;2023-07-20T04:11:02;16.50;99.90
9564;DHT22;4820;50.870;4.702;2023-07-20T04:13:28;16.50;99.90
9564;DHT22;4820;50.870;4.702;2023-07-20T04:15:54;16.50;99.90
9564;DHT22;4820;50.870;4.702;2023-07-20T04:18:20;16.60;99.90
9564;DHT22;4820;50.870;4.702;2023-07-20T04:20:46;16.50;99.90
9564;DHT22;4820;50.870;4.702;2023-07-20T04:23:13;16.60;99.90
9564;DHT22;4820;50.870;4.702;2023-07-20T04:25:41;16.60;99.90
9564;DHT22;4820;50.870;4.702;2023-07-20T04:28:07;16.60;99.90
9564;DHT22;4820;50.870;4.702;2023-07-20T04:30:37;16.60;99.90
9564;DHT22;4820;50.870;4.702;2023-07-20T04:33:03;16.60;99.90
9564;DHT22;4820;50.870;4.702;2023-07-20T04:38:14;16.70;99.90
9564;DHT22;4820;50.870;4.702;2023-07-20T04:40:42;16.80;99.90
9564;DHT22;4820;50.870;4.702;2023-07-20T04:43:07;16.90;99.90
9564;DHT22;4820;50.870;4.702;2023-07-20T04:45:33;16.90;99.90
9564;DHT22;4820;50.870;4.702;2023-07-20T04:47:59;17.00;99.90
9564;DHT22;4820;50.870;4.702;2023-07-20T04:50:24;17.00;99.90
9564;DHT22;4820;50.870;4.702;2023-07-20T04:52:51;17.10;99.90
9564;DHT22;4820;50.870;4.702;2023-07-20T04:55:17;17.10;99.90
9564;DHT22;4820;50.870;4.702;2023-07-20T04:57:43;17.10;99.90
9564;DHT22;4820;50.870;4.702;2023-07-20T05:00:10;17.10;99.90
9564;DHT22;4820;50.870;4.702;2023-07-20T05:02:39;17.20;99.90
9564;DHT22;4820;50.870;4.702;2023-07-20T05:05:05;17.20;99.90
9564;DHT22;4820;50.870;4.702;2023-07-20T05:07:32;17.30;99.90
9564;DHT22;4820;50.870;4.702;2023-07-20T05:09:57;17.20;99.90
9564;DHT22;4820;50.870;4.702;2023-07-20T05:12:23;17.20;99.90
9564;DHT22;4820;50.870;4.702;2023-07-20T05:14:49;17.30;99.90
9564;DHT22;4820;50.870;4.702;2023-07-20T05:17:14;17.30;99.90
9564;DHT22;4820;50.870;4.702;2023-07-20T05:19:40;17.30;99.90
9564;DHT22;4820;50.870;4.702;2023-07-20T05:22:06;17.40;99.90
9564;DHT22;4820;50.870;4.702;2023-07-20T05:24:31;17.50;99.90
9564;DHT22;4820;50.870;4.702;2023-07-20T05:26:58;17.60;99.90
9564;DHT22;4820;50.870;4.702;2023-07-20T05:29:24;17.60;99.90
9564;DHT22;4820;50.870;4.702;2023-07-20T05:31:50;17.70;99.90
9564;DHT22;4820;50.870;4.702;2023-07-20T05:34:16;17.70;99.90
9564;DHT22;4820;50.870;4.702;2023-07-20T05:36:42;17.80;99.90
9564;DHT22;4820;50.870;4.702;2023-07-20T05:39:07;17.80;99.90
9564;DHT22;4820;50.870;4.702;2023-07-20T05:41:34;17.80;99.90
9564;DHT22;4820;50.870;4.702;2023-07-20T05:43:59;17.80;99.90
9564;DHT22;4820;50.870;4.702;2023-07-20T05:46:25;17.90;99.90
9564;DHT22;4820;50.870;4.702;2023-07-20T05:48:52;17.90;99.90
9564;DHT22;4820;50.870;4.702;2023-07-20T05:51:17;17.90;99.90
9564;DHT22;4820;50.870;4.702;2023-07-20T05:53:43;18.00;99.90
9564;DHT22;4820;50.870;4.702;2023-07-20T05:56:09;18.00;99.90
9564;DHT22;4820;50.870;4.702;2023-07-20T05:58:37;18.00;99.90
9564;DHT22;4820;50.870;4.702;2023-07-20T06:01:04;18.00;99.90
9564;DHT22;4820;50.870;4.702;2023-07-20T06:03:31;18.10;99.90
9564;DHT22;4820;50.870;4.702;2023-07-20T06:06:03;18.10;99.90
9564;DHT22;4820;50.870;4.702;2023-07-20T06:08:32;18.10;99.90
9564;DHT22;4820;50.870;4.702;2023-07-20T06:10:59;18.00;99.90
9564;DHT22;4820;50.870;4.702;2023-07-20T06:13:25;18.10;99.90
9564;DHT22;4820;50.870;4.702;2023-07-20T06:15:50;18.10;99.90
9564;DHT22;4820;50.870;4.702;2023-07-20T06:18:16;18.10;99.90
9564;DHT22;4820;50.870;4.702;2023-07-20T06:20:42;18.10;99.90
9564;DHT22;4820;50.870;4.702;2023-07-20T06:23:07;18.20;99.90
9564;DHT22;4820;50.870;4.702;2023-07-20T06:25:34;18.20;99.90
9564;DHT22;4820;50.870;4.702;2023-07-20T06:28:00;18.30;99.90
9564;DHT22;4820;50.870;4.702;2023-07-20T06:30:25;18.40;99.90
9564;DHT22;4820;50.870;4.702;2023-07-20T06:32:52;18.50;99.90
9564;DHT22;4820;50.870;4.702;2023-07-20T06:35:17;18.50;99.90
9564;DHT22;4820;50.870;4.702;2023-07-20T06:37:43;18.60;99.90
9564;DHT22;4820;50.870;4.702;2023-07-20T06:40:09;18.60;99.90
9564;DHT22;4820;50.870;4.702;2023-07-20T06:42:35;18.60;99.90
9564;DHT22;4820;50.870;4.702;2023-07-20T06:45:01;18.70;99.90
9564;DHT22;4820;50.870;4.702;2023-07-20T06:47:27;18.70;99.90
9564;DHT22;4820;50.870;4.702;2023-07-20T06:49:52;18.80;99.90
9564;DHT22;4820;50.870;4.702;2023-07-20T06:52:18;19.00;99.90
9564;DHT22;4820;50.870;4.702;2023-07-20T06:54:44;19.10;99.90
9564;DHT22;4820;50.870;4.702;2023-07-20T06:57:10;19.10;99.90
9564;DHT22;4820;50.870;4.702;2023-07-20T06:59:35;19.00;99.90
9564;DHT22;4820;50.870;4.702;2023-07-20T07:02:01;19.00;99.90
9564;DHT22;4820;50.870;4.702;2023-07-20T07:04:27;19.10;99.90
9564;DHT22;4820;50.870;4.702;2023-07-20T07:06:53;19.20;99.90
9564;DHT22;4820;50.870;4.702;2023-07-20T07:09:18;19.30;99.90
9564;DHT22;4820;50.870;4.702;2023-07-20T07:11:44;19.40;99.90
9564;DHT22;4820;50.870;4.702;2023-07-20T07:14:11;19.40;99.90
9564;DHT22;4820;50.870;4.702;2023-07-20T07:16:37;19.40;99.90
9564;DHT22;4820;50.870;4.702;2023-07-20T07:19:03;19.40;99.90
9564;DHT22;4820;50.870;4.702;2023-07-20T07:21:29;19.30;99.90
9564;DHT22;4820;50.870;4.702;2023-07-20T07:23:56;19.30;99.90
9564;DHT22;4820;50.870;4.702;2023-07-20T07:26:23;19.30;99.90
9564;DHT22;4820;50.870;4.702;2023-07-20T07:28:49;19.30;99.90
9564;DHT22;4820;50.870;4.702;2023-07-20T07:31:15;19.20;99.90
9564;DHT22;4820;50.870;4.702;2023-07-20T07:33:41;19.10;99.90
9564;DHT22;4820;50.870;4.702;2023-07-20T07:36:06;19.10;99.90
9564;DHT22;4820;50.870;4.702;2023-07-20T07:38:33;19.20;99.90
9564;DHT22;4820;50.870;4.702;2023-07-20T07:41:00;19.40;99.90
9564;DHT22;4820;50.870;4.702;2023-07-20T07:43:27;19.50;99.90
9564;DHT22;4820;50.870;4.702;2023-07-20T07:45:54;19.50;99.90
9564;DHT22;4820;50.870;4.702;2023-07-20T07:48:21;19.40;99.90
9564;DHT22;4820;50.870;4.702;2023-07-20T07:50:47;19.40;99.90
9564;DHT22;4820;50.870;4.702;2023-07-20T07:53:15;19.40;99.90
9564;DHT22;4820;50.870;4.702;2023-07-20T07:55:40;19.40;99.90
9564;DHT22;4820;50.870;4.702;2023-07-20T07:58:06;19.30;99.90
9564;DHT22;4820;50.870;4.702;2023-07-20T08:00:32;19.30;99.90
9564;DHT22;4820;50.870;4.702;2023-07-20T08:02:59;19.40;99.90
9564;DHT22;4820;50.870;4.702;2023-07-20T08:05:24;19.40;99.90
9564;DHT22;4820;50.870;4.702;2023-07-20T08:07:51;19.60;99.90
9564;DHT22;4820;50.870;4.702;2023-07-20T08:10:17;19.80;99.90
9564;DHT22;4820;50.870;4.702;2023-07-20T08:12:43;20.00;99.90
9564;DHT22;4820;50.870;4.702;2023-07-20T08:15:11;20.00;99.90
9564;DHT22;4820;50.870;4.702;2023-07-20T08:17:37;20.00;99.90
9564;DHT22;4820;50.870;4.702;2023-07-20T08:20:02;20.00;99.90
9564;DHT22;4820;50.870;4.702;2023-07-20T08:22:28;19.90;99.90
9564;DHT22;4820;50.870;4.702;2023-07-20T08:24:54;19.80;99.90
9564;DHT22;4820;50.870;4.702;2023-07-20T08:27:19;19.80;99.90
9564;DHT22;4820;50.870;4.702;2023-07-20T08:29:45;19.90;99.90
9564;DHT22;4820;50.870;4.702;2023-07-20T08:32:11;19.90;99.90
9564;DHT22;4820;50.870;4.702;2023-07-20T08:34:39;20.00;99.90
9564;DHT22;4820;50.870;4.702;2023-07-20T08:37:05;20.00;99.90
9564;DHT22;4820;50.870;4.702;2023-07-20T08:39:30;20.00;99.90
9564;DHT22;4820;50.870;4.702;2023-07-20T08:41:58;20.10;99.90
9564;DHT22;4820;50.870;4.702;2023-07-20T08:44:25;20.20;99.90
9564;DHT22;4820;50.870;4.702;2023-07-20T08:46:52;20.40;99.90
9564;DHT22;4820;50.870;4.702;2023-07-20T08:49:17;20.60;99.90
9564;DHT22;4820;50.870;4.702;2023-07-20T08:51:45;20.80;99.90
9564;DHT22;4820;50.870;4.702;2023-07-20T08:54:12;20.90;99.90
9564;DHT22;4820;50.870;4.702;2023-07-20T08:56:40;20.90;99.90
9564;DHT22;4820;50.870;4.702;2023-07-20T08:59:08;20.90;99.90
9564;DHT22;4820;50.870;4.702;2023-07-20T09:01:36;21.00;99.90
9564;DHT22;4820;50.870;4.702;2023-07-20T09:04:02;21.00;99.90
9564;DHT22;4820;50.870;4.702;2023-07-20T09:06:28;20.80;99.90
9564;DHT22;4820;50.870;4.702;2023-07-20T09:08:54;20.70;99.90
9564;DHT22;4820;50.870;4.702;2023-07-20T09:11:20;20.60;99.90
9564;DHT22;4820;50.870;4.702;2023-07-20T09:13:46;20.60;99.90
9564;DHT22;4820;50.870;4.702;2023-07-20T09:16:13;20.80;99.90
9564;DHT22;4820;50.870;4.702;2023-07-20T09:18:40;21.00;99.90
9564;DHT22;4820;50.870;4.702;2023-07-20T09:21:07;21.10;99.90
9564;DHT22;4820;50.870;4.702;2023-07-20T09:23:36;21.20;99.90
9564;DHT22;4820;50.870;4.702;2023-07-20T09:26:14;21.20;99.90
9564;DHT22;4820;50.870;4.702;2023-07-20T09:28:50;21.20;99.90
9564;DHT22;4820;50.870;4.702;2023-07-20T09:31:18;21.30;99.90
9564;DHT22;4820;50.870;4.702;2023-07-20T09:33:44;21.30;99.90
9564;DHT22;4820;50.870;4.702;2023-07-20T09:36:10;21.40;99.90
9564;DHT22;4820;50.870;4.702;2023-07-20T09:38:42;21.50;99.90
9564;DHT22;4820;50.870;4.702;2023-07-20T09:41:14;21.60;99.90
9564;DHT22;4820;50.870;4.702;2023-07-20T09:43:45;21.70;99.90
9564;DHT22;4820;50.870;4.702;2023-07-20T09:46:11;21.70;99.90
9564;DHT22;4820;50.870;4.702;2023-07-20T09:48:36;21.70;99.90
9564;DHT22;4820;50.870;4.702;2023-07-20T09:51:03;21.70;99.90
9564;DHT22;4820;50.870;4.702;2023-07-20T09:53:33;21.70;99.90
9564;DHT22;4820;50.870;4.702;2023-07-20T09:55:58;21.80;99.90
9564;DHT22;4820;50.870;4.702;2023-07-20T09:58:26;22.00;99.90
9564;DHT22;4820;50.870;4.702;2023-07-20T10:00:52;22.10;99.90
9564;DHT22;4820;50.870;4.702;2023-07-20T10:03:22;22.20;99.90
9564;DHT22;4820;50.870;4.702;2023-07-20T10:06:08;22.30;99.90
9564;DHT22;4820;50.870;4.702;2023-07-20T10:08:39;22.40;99.90
9564;DHT22;4820;50.870;4.702;2023-07-20T10:11:07;22.60;99.90
9564;DHT22;4820;50.870;4.702;2023-07-20T10:13:38;22.60;99.90
9564;DHT22;4820;50.870;4.702;2023-07-20T10:16:34;22.70;99.90
9564;DHT22;4820;50.870;4.702;2023-07-20T10:19:17;22.50;99.90
9564;DHT22;4820;50.870;4.702;2023-07-20T10:21:56;22.60;99.90
9564;DHT22;4820;50.870;4.702;2023-07-20T10:24:23;22.80;99.90
9564;DHT22;4820;50.870;4.702;2023-07-20T10:26:50;22.90;99.90
9564;DHT22;4820;50.870;4.702;2023-07-20T10:29:16;22.80;99.90
9564;DHT22;4820;50.870;4.702;2023-07-20T10:31:42;22.80;99.90
9564;DHT22;4820;50.870;4.702;2023-07-20T10:34:08;22.80;99.90
9564;DHT22;4820;50.870;4.702;2023-07-20T10:36:46;23.00;99.90
9564;DHT22;4820;50.870;4.702;2023-07-20T10:39:26;23.20;99.90
9564;DHT22;4820;50.870;4.702;2023-07-20T10:42:09;23.20;99.90
9564;DHT22;4820;50.870;4.702;2023-07-20T10:44:41;23.10;99.90
9564;DHT22;4820;50.870;4.702;2023-07-20T10:47:12;23.00;99.90
9564;DHT22;4820;50.870;4.702;2023-07-20T10:49:57;23.10;99.90
9564;DHT22;4820;50.870;4.702;2023-07-20T10:52:23;23.10;99.90
9564;DHT22;4820;50.870;4.702;2023-07-20T10:54:50;23.00;99.90
9564;DHT22;4820;50.870;4.702;2023-07-20T10:57:24;23.00;99.90
9564;DHT22;4820;50.870;4.702;2023-07-20T10:59:50;23.00;99.90
9564;DHT22;4820;50.870;4.702;2023-07-20T11:02:20;23.10;99.90
9564;DHT22;4820;50.870;4.702;2023-07-20T11:04:47;23.00;99.90
9564;DHT22;4820;50.870;4.702;2023-07-20T11:07:37;23.00;99.90
9564;DHT22;4820;50.870;4.702;2023-07-20T11:10:15;23.10;99.90
9564;DHT22;4820;50.870;4.702;2023-07-20T11:12:41;23.10;99.90
9564;DHT22;4820;50.870;4.702;2023-07-20T11:15:31;23.10;99.90
9564;DHT22;4820;50.870;4.702;2023-07-20T11:18:13;23.20;99.90
9564;DHT22;4820;50.870;4.702;2023-07-20T11:20:39;23.30;99.90
9564;DHT22;4820;50.870;4.702;2023-07-20T11:23:06;23.30;99.90
9564;DHT22;4820;50.870;4.702;2023-07-20T11:25:41;23.40;99.90
9564;DHT22;4820;50.870;4.702;2023-07-20T11:28:08;23.40;99.90
9564;DHT22;4820;50.870;4.702;2023-07-20T11:30:37;23.30;99.90
9564;DHT22;4820;50.870;4.702;2023-07-20T11:33:05;23.10;99.90
9564;DHT22;4820;50.870;4.702;2023-07-20T11:35:34;23.00;99.90
9564;DHT22;4820;50.870;4.702;2023-07-20T11:38:00;22.90;99.90
9564;DHT22;4820;50.870;4.702;2023-07-20T11:40:26;22.70;99.90
9564;DHT22;4820;50.870;4.702;2023-07-20T11:42:52;22.50;99.90
9564;DHT22;4820;50.870;4.702;2023-07-20T11:45:19;22.40;99.90
9564;DHT22;4820;50.870;4.702;2023-07-20T11:47:45;22.30;99.90
9564;DHT22;4820;50.870;4.702;2023-07-20T11:50:11;22.20;99.90
9564;DHT22;4820;50.870;4.702;2023-07-20T11:52:37;22.30;99.90
9564;DHT22;4820;50.870;4.702;2023-07-20T11:55:03;22.30;99.90
9564;DHT22;4820;50.870;4.702;2023-07-20T11:57:30;22.40;99.90
9564;DHT22;4820;50.870;4.702;2023-07-20T11:59:58;22.60;99.90
9564;DHT22;4820;50.870;4.702;2023-07-20T12:02:29;22.70;99.90
9564;DHT22;4820;50.870;4.702;2023-07-20T12:04:56;22.90;99.90
9564;DHT22;4820;50.870;4.702;2023-07-20T12:07:22;23.10;99.90
9564;DHT22;4820;50.870;4.702;2023-07-20T12:10:07;23.20;99.90
9564;DHT22;4820;50.870;4.702;2023-07-20T12:12:34;23.40;99.90
9564;DHT22;4820;50.870;4.702;2023-07-20T12:17:45;23.50;99.90
9564;DHT22;4820;50.870;4.702;2023-07-20T12:20:12;23.50;99.90
9564;DHT22;4820;50.870;4.702;2023-07-20T12:22:40;23.50;99.90
9564;DHT22;4820;50.870;4.702;2023-07-20T12:25:09;23.40;99.90
9564;DHT22;4820;50.870;4.702;2023-07-20T12:27:38;23.30;99.90
9564;DHT22;4820;50.870;4.702;2023-07-20T12:30:05;23.40;99.90
9564;DHT22;4820;50.870;4.702;2023-07-20T12:32:31;23.50;99.90
9564;DHT22;4820;50.870;4.702;2023-07-20T12:34:57;23.50;99.90
9564;DHT22;4820;50.870;4.702;2023-07-20T12:37:23;23.80;99.90
9564;DHT22;4820;50.870;4.702;2023-07-20T12:39:48;23.90;99.90
9564;DHT22;4820;50.870;4.702;2023-07-20T12:42:14;24.00;99.90
9564;DHT22;4820;50.870;4.702;2023-07-20T12:44:43;24.00;99.90
9564;DHT22;4820;50.870;4.702;2023-07-20T12:47:08;23.80;99.90
9564;DHT22;4820;50.870;4.702;2023-07-20T12:49:34;23.70;99.90
9564;DHT22;4820;50.870;4.702;2023-07-20T12:52:00;23.80;99.90
9564;DHT22;4820;50.870;4.702;2023-07-20T12:54:25;23.80;99.90
9564;DHT22;4820;50.870;4.702;2023-07-20T12:56:51;23.90;99.90
9564;DHT22;4820;50.870;4.702;2023-07-20T12:59:16;24.00;99.90
9564;DHT22;4820;50.870;4.702;2023-07-20T13:01:42;24.10;99.90
9564;DHT22;4820;50.870;4.702;2023-07-20T13:04:09;24.10;99.90
9564;DHT22;4820;50.870;4.702;2023-07-20T13:06:35;24.30;99.90
9564;DHT22;4820;50.870;4.702;2023-07-20T13:09:02;24.50;99.90
9564;DHT22;4820;50.870;4.702;2023-07-20T13:11:28;24.50;99.90
9564;DHT22;4820;50.870;4.702;2023-07-20T13:13:54;24.50;99.90
9564;DHT22;4820;50.870;4.702;2023-07-20T13:16:20;24.70;99.90
9564;DHT22;4820;50.870;4.702;2023-07-20T13:18:45;25.00;99.90
9564;DHT22;4820;50.870;4.702;2023-07-20T13:21:11;25.20;99.20
9564;DHT22;4820;50.870;4.702;2023-07-20T13:23:37;25.20;98.70
9564;DHT22;4820;50.870;4.702;2023-07-20T13:26:06;25.00;98.70
9564;DHT22;4820;50.870;4.702;2023-07-20T13:28:33;24.80;98.70
9564;DHT22;4820;50.870;4.702;2023-07-20T13:30:59;25.00;98.70
9564;DHT22;4820;50.870;4.702;2023-07-20T13:33:24;25.10;98.80
9564;DHT22;4820;50.870;4.702;2023-07-20T13:35:50;25.00;98.90
9564;DHT22;4820;50.870;4.702;2023-07-20T13:38:16;24.80;99.20
9564;DHT22;4820;50.870;4.702;2023-07-20T13:40:41;24.60;99.50
9564;DHT22;4820;50.870;4.702;2023-07-20T13:43:08;24.50;99.30
9564;DHT22;4820;50.870;4.702;2023-07-20T13:45:33;24.30;99.50
9564;DHT22;4820;50.870;4.702;2023-07-20T13:47:59;24.20;99.60
9564;DHT22;4820;50.870;4.702;2023-07-20T13:50:25;24.10;99.60
9564;DHT22;4820;50.870;4.702;2023-07-20T13:52:51;24.00;99.70
9564;DHT22;4820;50.870;4.702;2023-07-20T13:55:17;23.90;99.90
9564;DHT22;4820;50.870;4.702;2023-07-20T13:57:44;23.80;99.90
9564;DHT22;4820;50.870;4.702;2023-07-20T14:00:10;23.70;99.90
9564;DHT22;4820;50.870;4.702;2023-07-20T14:02:36;23.60;99.90
9564;DHT22;4820;50.870;4.702;2023-07-20T14:05:02;23.50;99.90
9564;DHT22;4820;50.870;4.702;2023-07-20T14:07:29;23.50;99.90
9564;DHT22;4820;50.870;4.702;2023-07-20T14:09:54;23.40;99.90
9564;DHT22;4820;50.870;4.702;2023-07-20T14:12:20;23.40;99.90
9564;DHT22;4820;50.870;4.702;2023-07-20T14:14:46;23.50;99.90
9564;DHT22;4820;50.870;4.702;2023-07-20T14:17:11;23.60;99.90
9564;DHT22;4820;50.870;4.702;2023-07-20T14:19:38;23.70;99.90
9564;DHT22;4820;50.870;4.702;2023-07-20T14:22:05;23.70;99.90
9564;DHT22;4820;50.870;4.702;2023-07-20T14:24:30;23.60;99.90
9564;DHT22;4820;50.870;4.702;2023-07-20T14:26:59;23.70;99.90
9564;DHT22;4820;50.870;4.702;2023-07-20T14:29:27;23.80;99.90
9564;DHT22;4820;50.870;4.702;2023-07-20T14:31:53;24.10;99.90
9564;DHT22;4820;50.870;4.702;2023-07-20T14:34:19;24.30;99.90
9564;DHT22;4820;50.870;4.702;2023-07-20T14:36:45;24.50;99.90
9564;DHT22;4820;50.870;4.702;2023-07-20T14:39:10;24.70;99.90
9564;DHT22;4820;50.870;4.702;2023-07-20T14:41:36;24.70;99.90
9564;DHT22;4820;50.870;4.702;2023-07-20T14:44:03;24.70;99.90
9564;DHT22;4820;50.870;4.702;2023-07-20T14:46:29;24.60;99.90
9564;DHT22;4820;50.870;4.702;2023-07-20T14:48:55;24.50;99.90
9564;DHT22;4820;50.870;4.702;2023-07-20T14:51:22;24.50;99.90
9564;DHT22;4820;50.870;4.702;2023-07-20T14:53:48;24.30;99.90
9564;DHT22;4820;50.870;4.702;2023-07-20T14:56:13;24.30;99.90
9564;DHT22;4820;50.870;4.702;2023-07-20T14:58:39;24.50;99.90
9564;DHT22;4820;50.870;4.702;2023-07-20T15:01:06;24.80;99.90
9564;DHT22;4820;50.870;4.702;2023-07-20T15:03:32;25.10;99.70
9564;DHT22;4820;50.870;4.702;2023-07-20T15:05:58;25.50;99.40
9564;DHT22;4820;50.870;4.702;2023-07-20T15:08:23;25.60;99.10
9564;DHT22;4820;50.870;4.702;2023-07-20T15:10:49;25.60;98.80
9564;DHT22;4820;50.870;4.702;2023-07-20T15:13:15;25.60;98.90
9564;DHT22;4820;50.870;4.702;2023-07-20T15:15:41;25.60;99.10
9564;DHT22;4820;50.870;4.702;2023-07-20T15:18:08;25.60;98.80
9564;DHT22;4820;50.870;4.702;2023-07-20T15:20:34;25.40;98.50
9564;DHT22;4820;50.870;4.702;2023-07-20T15:23:00;25.30;99.10
9564;DHT22;4820;50.870;4.702;2023-07-20T15:25:25;25.20;99.20
9564;DHT22;4820;50.870;4.702;2023-07-20T15:27:52;25.20;99.30
9564;DHT22;4820;50.870;4.702;2023-07-20T15:30:18;25.20;99.20
9564;DHT22;4820;50.870;4.702;2023-07-20T15:32:44;25.20;99.00
9564;DHT22;4820;50.870;4.702;2023-07-20T15:35:10;25.20;99.00
9564;DHT22;4820;50.870;4.702;2023-07-20T15:37:36;25.30;98.90
9564;DHT22;4820;50.870;4.702;2023-07-20T15:40:03;25.20;99.30
9564;DHT22;4820;50.870;4.702;2023-07-20T15:42:32;25.30;98.70
9564;DHT22;4820;50.870;4.702;2023-07-20T15:44:58;25.30;98.70
9564;DHT22;4820;50.870;4.702;2023-07-20T15:47:23;25.40;98.60
9564;DHT22;4820;50.870;4.702;2023-07-20T15:49:49;25.30;98.50
9564;DHT22;4820;50.870;4.702;2023-07-20T15:52:15;25.30;98.70
9564;DHT22;4820;50.870;4.702;2023-07-20T15:54:41;25.10;98.90
9564;DHT22;4820;50.870;4.702;2023-07-20T15:57:07;25.10;99.20
9564;DHT22;4820;50.870;4.702;2023-07-20T15:59:34;24.90;99.10
9564;DHT22;4820;50.870;4.702;2023-07-20T16:02:00;24.80;99.40
9564;DHT22;4820;50.870;4.702;2023-07-20T16:04:27;24.60;99.50
9564;DHT22;4820;50.870;4.702;2023-07-20T16:06:52;24.50;99.60
9564;DHT22;4820;50.870;4.702;2023-07-20T16:09:19;24.30;99.80
9564;DHT22;4820;50.870;4.702;2023-07-20T16:11:45;24.20;99.90
9564;DHT22;4820;50.870;4.702;2023-07-20T16:14:11;24.00;99.90